Alderney Airport

Airport
ICAO code: 
EGJA
IATA Code: 
ACI
Summary
ICAO Region: 
EUR
Territory: 
Location: 
St. Anne, Guernsey
Serving: 
Alderney
Elevation: 
290 ft
Coordinates: 
Aerial View: 
49° 42' 22" N, 2° 12' 52.999" W
Metar
Observation
EGJA 281720Z 34010KT 310V010 9999 FEW028 07/01 Q1008
Station
Alderney / Channel Island
Date/Time
2021-11-28 17:20:00
Wind direction
340°
Wind speed
10 kts
Lowest cloud amount
few clouds
Temperature
7°C
Dew point
1°C
Humidity
65%
QNH
1008 hPa
Weather condition
n/a

Description

Alderney Airport is the only airport on the island of Alderney. Located on the Blaye 1.9 km southwest of St Anne, it is the closest Channel Island airport to the south coast of England and the coast of France.

Runways

Designator Length Width Surface Rops
3/21 497 37 GRE No/No
14/32 732 37 GRE No/No
8/26 880 23 ASP No/No
Airport map: 
Aerial View: 

SKYbrary Partners:

Safety knowledge contributed by: